Time;durP1;ratioP1;P1;durP2;ratioP2;P2;SDS_P1;SDS_P2;PMS_P1;PMS_P2;Temp;Humidity;BMP_temperature;BMP_pressure;BME280_temperature;BME280_humidity;BME280_pressure;Samples;Min_cycle;Max_cycle;Signal;HPM_P1;HPM_P2
2021/12/13 00:00:17;;;;;;;8.68;1.20;;;;;;;9.76;75.40;100449.44;4996705;28;20117;-50
2021/12/13 00:02:59;;;;;;;3.78;1.33;;;;;;;9.77;75.33;100450.31;4994470;28;20046;-53
2021/12/13 00:05:37;;;;;;;3.88;0.80;;;;;;;9.79;75.08;100445.16;5008012;28;20481;-53
2021/12/13 00:08:10;;;;;;;3.35;0.88;;;;;;;9.77;75.34;100439.97;5001002;28;20116;-50
2021/12/13 00:10:45;;;;;;;6.78;1.05;;;;;;;9.76;75.05;100449.44;5004186;28;20037;-49
2021/12/13 00:13:19;;;;;;;3.45;1.42;;;;;;;9.78;74.73;100452.03;5006445;28;20100;-50
2021/12/13 00:15:54;;;;;;;3.97;0.90;;;;;;;9.75;74.64;100436.47;5004689;28;20104;-51
2021/12/13 00:18:26;;;;;;;5.15;0.90;;;;;;;9.74;74.79;100440.81;5003358;28;20051;-50
2021/12/13 00:20:59;;;;;;;1.27;0.60;;;;;;;9.73;75.27;100436.47;5004971;28;20050;-54
2021/12/13 00:23:34;;;;;;;5.63;0.90;;;;;;;9.71;75.16;100439.91;5007951;28;20046;-53
2021/12/13 00:26:03;;;;;;;4.30;0.88;;;;;;;9.73;74.89;100438.22;5000160;28;20092;-54
2021/12/13 00:28:38;;;;;;;3.13;0.80;;;;;;;9.72;74.55;100442.50;5005169;28;20045;-52
2021/12/13 00:31:33;;;;;;;2.08;0.50;;;;;;;9.70;75.02;100433.00;5002580;28;20050;-50
2021/12/13 00:34:14;;;;;;;2.95;0.95;;;;;;;9.72;74.76;100436.44;5003251;28;20501;-51
2021/12/13 00:37:09;;;;;;;3.10;0.68;;;;;;;9.70;74.86;100435.59;5003281;28;20046;-50
2021/12/13 00:39:57;;;;;;;2.90;1.23;;;;;;;9.71;74.90;100445.06;4997563;28;20046;-54
2021/12/13 00:42:32;;;;;;;2.28;0.70;;;;;;;9.74;74.79;100435.63;4999713;28;20054;-48
2021/12/13 00:45:05;;;;;;;5.90;1.52;;;;;;;9.77;74.87;100433.03;5001061;28;20489;-53
2021/12/13 00:47:34;;;;;;;6.75;0.75;;;;;;;9.78;75.26;100433.91;5004037;28;20054;-50
2021/12/13 00:50:12;;;;;;;6.20;0.95;;;;;;;9.81;75.34;100425.31;5005940;28;20060;-53
2021/12/13 00:52:41;;;;;;;2.55;0.73;;;;;;;9.85;74.69;100432.22;4997832;28;20046;-48
2021/12/13 00:55:13;;;;;;;4.85;0.70;;;;;;;9.87;74.69;100431.38;4998457;28;20042;-52
2021/12/13 00:57:45;;;;;;;4.65;1.25;;;;;;;9.90;74.38;100425.38;5000279;28;20548;-51
2021/12/13 01:00:32;;;;;;;2.33;0.63;;;;;;;9.90;74.87;100425.38;5003549;28;20426;-52
2021/12/13 01:03:03;;;;;;;4.22;0.60;;;;;;;9.95;74.98;100420.22;5000509;28;20066;-50
2021/12/13 01:06:09;;;;;;;1.83;0.77;;;;;;;9.91;75.25;100411.59;4999874;28;20104;-50
2021/12/13 01:09:15;;;;;;;4.53;0.65;;;;;;;9.94;75.13;100415.91;4986763;28;20102;-53
2021/12/13 01:11:55;;;;;;;2.45;1.70;;;;;;;9.96;74.38;100425.41;4991617;28;20445;-51
2021/12/13 01:14:52;;;;;;;4.43;1.30;;;;;;;9.97;74.98;100427.13;4999930;28;20441;-51
2021/12/13 01:17:36;;;;;;;3.00;0.82;;;;;;;10.01;74.26;100423.72;5002442;28;20050;-51
2021/12/13 01:20:26;;;;;;;3.90;1.25;;;;;;;10.01;74.24;100423.72;4995992;28;20053;-53
2021/12/13 01:23:01;;;;;;;6.20;0.70;;;;;;;10.07;74.48;100422.91;5002876;28;20475;-54
2021/12/13 01:25:42;;;;;;;7.35;0.90;;;;;;;10.09;74.36;100420.28;4999785;28;20046;-53
2021/12/13 01:28:20;;;;;;;3.08;0.70;;;;;;;10.07;74.48;100427.19;4998063;28;20050;-55
2021/12/13 01:30:53;;;;;;;3.90;1.33;;;;;;;10.09;74.54;100418.56;5002617;28;20050;-54
2021/12/13 01:33:21;;;;;;;7.20;1.00;;;;;;;10.09;73.96;100420.28;5000043;28;20647;-55
2021/12/13 01:35:51;;;;;;;4.47;0.95;;;;;;;10.10;74.46;100422.03;4998728;28;20096;-52
2021/12/13 01:38:31;;;;;;;3.13;0.50;;;;;;;10.11;74.16;100434.13;4996032;28;20050;-54
2021/12/13 01:41:00;;;;;;;2.55;0.57;;;;;;;10.11;74.19;100426.34;5003097;28;20065;-51
2021/12/13 01:43:30;;;;;;;3.95;0.95;;;;;;;10.15;74.41;100428.09;5001906;28;20486;-51
2021/12/13 01:46:00;;;;;;;3.33;0.82;;;;;;;10.17;73.99;100434.16;4999016;28;20049;-51
2021/12/13 01:48:29;;;;;;;;;;;;;;;10.08;74.68;100439.28;5010791;28;20074;-52
2021/12/13 01:51:05;;;;;;;4.13;0.50;;;;;;;10.15;74.05;100428.09;4995781;28;19921;-51
2021/12/13 01:53:55;;;;;;;4.28;0.73;;;;;;;10.12;74.24;100425.50;4977904;28;20512;-53
2021/12/13 01:56:40;;;;;;;3.17;0.60;;;;;;;10.18;74.14;100429.84;5000123;28;20140;-49
2021/12/13 01:59:30;;;;;;;2.95;0.85;;;;;;;10.21;74.43;100441.09;4995050;28;20049;-52
2021/12/13 02:02:19;;;;;;;4.82;0.70;;;;;;;10.23;74.65;100444.53;5003510;28;20633;-53
2021/12/13 02:04:56;;;;;;;2.83;1.35;;;;;;;10.23;74.30;100444.53;4997417;28;20054;-56
2021/12/13 02:07:27;;;;;;;3.72;1.15;;;;;;;10.24;74.13;100445.41;4999202;28;20061;-54
2021/12/13 02:09:56;;;;;;;2.65;0.50;;;;;;;10.24;73.94;100451.44;5000835;28;20046;-53
2021/12/13 02:12:28;;;;;;;5.35;1.65;;;;;;;10.23;73.85;100441.94;4998111;28;20055;-52
2021/12/13 02:17:46;;;;;;;2.95;1.33;;;;;;;10.23;73.77;100444.53;4984938;28;20061;-54
2021/12/13 02:20:19;;;;;;;5.90;0.93;;;;;;;10.24;74.58;100456.59;5008259;28;20054;-53
2021/12/13 02:22:49;;;;;;;3.45;0.63;;;;;;;10.21;74.54;100451.44;5003673;28;20108;-55
2021/12/13 02:25:38;;;;;;;5.65;1.02;;;;;;;10.21;74.69;100458.31;5005302;28;20049;-51
2021/12/13 02:28:11;;;;;;;7.80;1.63;;;;;;;10.23;74.32;100454.03;5004492;28;20484;-52
2021/12/13 02:30:44;;;;;;;4.93;0.80;;;;;;;10.26;73.85;100454.03;5008446;28;20054;-51
2021/12/13 02:33:16;;;;;;;4.63;2.20;;;;;;;10.24;73.67;100456.59;4999855;28;20452;-50
2021/12/13 02:35:49;;;;;;;3.38;1.15;;;;;;;10.28;74.51;100458.38;5006179;28;20492;-54
2021/12/13 02:38:17;;;;;;;1.88;0.88;;;;;;;10.28;73.71;100458.38;5000654;28;20045;-52
2021/12/13 02:40:46;;;;;;;4.10;0.65;;;;;;;10.27;74.64;100460.97;5003432;28;20058;-51
2021/12/13 02:43:16;;;;;;;2.05;0.45;;;;;;;10.29;74.61;100464.41;5001339;28;20107;-48
2021/12/13 02:45:49;;;;;;;5.28;0.63;;;;;;;10.28;73.74;100468.75;5005436;28;20054;-52
2021/12/13 02:48:25;;;;;;;2.42;0.75;;;;;;;10.29;74.50;100465.28;5004192;28;20121;-49
2021/12/13 02:50:59;;;;;;;4.10;0.90;;;;;;;10.26;74.25;100475.63;5002771;28;20049;-52
2021/12/13 02:53:32;;;;;;;4.97;0.93;;;;;;;10.28;74.66;100470.44;5004027;28;20050;-53
2021/12/13 02:55:59;;;;;;;1.98;0.80;;;;;;;10.31;74.73;100475.66;5008473;28;20482;-51
2021/12/13 02:58:28;;;;;;;4.22;0.85;;;;;;;10.31;74.03;100467.00;5004486;28;20096;-54
2021/12/13 03:01:10;;;;;;;3.45;0.70;;;;;;;10.29;74.87;100467.00;5000458;28;20120;-51
2021/12/13 03:03:42;;;;;;;6.35;0.82;;;;;;;10.31;74.33;100472.19;4999038;28;20486;-51
2021/12/13 03:06:12;;;;;;;2.70;0.63;;;;;;;10.31;74.04;100459.25;5006296;28;20076;-50
2021/12/13 03:08:41;;;;;;;;;;;;;;;10.21;75.38;100466.97;5001870;28;25699;-50
2021/12/13 03:11:21;;;;;;;5.70;1.45;;;;;;;10.25;74.66;100467.84;5003464;28;20313;-52
2021/12/13 03:13:54;;;;;;;6.43;0.90;;;;;;;10.29;74.67;100465.28;5001645;28;20092;-53
2021/12/13 03:16:25;;;;;;;7.05;0.65;;;;;;;10.31;74.86;100474.78;5005701;28;20046;-52
2021/12/13 03:19:11;;;;;;;2.58;0.63;;;;;;;10.28;75.55;100470.44;5003076;28;20085;-49
2021/12/13 03:22:07;;;;;;;4.05;0.88;;;;;;;10.29;75.82;100475.63;4999202;28;20543;-51
2021/12/13 03:24:47;;;;;;;;;;;;;;;10.24;75.77;100472.13;5003619;28;20050;-50
2021/12/13 03:27:50;;;;;;;2.38;0.57;;;;;;;10.27;75.68;100471.31;5008552;28;20450;-52
2021/12/13 03:30:22;;;;;;;5.85;0.50;;;;;;;10.32;75.15;100463.56;5006259;28;20046;-52
2021/12/13 03:32:58;;;;;;;2.38;0.70;;;;;;;10.31;75.56;100472.19;5003351;28;20045;-52
2021/12/13 03:35:49;;;;;;;4.38;0.85;;;;;;;10.28;76.01;100466.16;5006612;28;20050;-51
2021/12/13 03:38:22;;;;;;;3.00;0.88;;;;;;;10.31;76.00;100467.00;5001067;28;20046;-51
2021/12/13 03:40:49;;;;;;;4.68;0.82;;;;;;;10.32;75.93;100460.97;5004498;28;20560;-54
2021/12/13 03:43:31;;;;;;;4.82;1.75;;;;;;;10.28;76.33;100468.75;5006843;28;20437;-54
2021/12/13 03:46:03;;;;;;;7.80;1.05;;;;;;;10.28;75.87;100475.63;5002207;28;20062;-50
2021/12/13 03:48:33;;;;;;;5.75;0.88;;;;;;;10.27;76.28;100479.94;5003706;28;20117;-51
2021/12/13 03:51:05;;;;;;;10.98;1.30;;;;;;;10.24;76.72;100479.91;5001944;28;20100;-51
2021/12/13 03:53:33;;;;;;;3.65;1.30;;;;;;;10.23;76.63;100485.94;5001640;28;20050;-49
2021/12/13 03:56:06;;;;;;;5.18;1.20;;;;;;;10.25;76.82;100479.06;5000803;28;20050;-50
2021/12/13 03:58:37;;;;;;;5.85;1.00;;;;;;;10.22;76.97;100483.34;4998789;28;20046;-49
2021/12/13 04:01:14;;;;;;;4.38;1.00;;;;;;;10.21;76.61;100481.63;5004154;28;20054;-52
2021/12/13 04:03:43;;;;;;;2.45;0.95;;;;;;;10.22;76.69;100473.88;5001686;28;20057;-52
2021/12/13 04:06:14;;;;;;;9.75;1.98;;;;;;;10.23;76.57;100474.75;5002538;28;20042;-50
2021/12/13 04:08:44;;;;;;;5.25;0.65;;;;;;;10.22;76.39;100481.63;4999189;28;20046;-52
2021/12/13 04:11:11;;;;;;;1.92;0.70;;;;;;;10.21;76.41;100479.91;5006670;28;20555;-53
2021/12/13 04:13:45;;;;;;;2.28;0.68;;;;;;;10.19;77.07;100478.16;5005458;28;20046;-51
2021/12/13 04:16:31;;;;;;;6.57;0.95;;;;;;;10.17;77.29;100475.59;5000911;28;20062;-51
2021/12/13 04:19:06;;;;;;;4.88;1.42;;;;;;;10.17;76.93;100485.94;4998792;28;20100;-52
2021/12/13 04:21:49;;;;;;;3.13;1.23;;;;;;;10.18;76.85;100482.47;5003557;28;20057;-52
2021/12/13 04:24:40;;;;;;;2.55;1.15;;;;;;;10.17;77.39;100475.59;5002482;28;20045;-51
2021/12/13 04:27:19;;;;;;;2.45;0.93;;;;;;;10.18;77.24;100477.31;5006909;28;20116;-53
2021/12/13 04:29:49;;;;;;;4.95;0.70;;;;;;;10.21;76.85;100477.31;5000389;28;20053;-53
2021/12/13 04:32:22;;;;;;;3.60;1.17;;;;;;;10.17;77.50;100470.41;5000989;28;20050;-53
2021/12/13 04:34:54;;;;;;;5.25;1.52;;;;;;;10.15;77.40;100482.44;5006493;28;20104;-53
2021/12/13 04:37:25;;;;;;;4.68;0.95;;;;;;;10.18;77.14;100479.88;5000880;28;20173;-52
2021/12/13 04:39:57;;;;;;;5.15;0.63;;;;;;;10.16;77.88;100484.19;5008008;28;20058;-49
2021/12/13 04:42:27;;;;;;;4.15;0.80;;;;;;;10.20;77.18;100487.66;4998290;28;20113;-52
2021/12/13 04:45:13;;;;;;;;;;;;;;;10.10;77.63;100489.34;5003393;28;20054;-49
2021/12/13 04:47:57;;;;;;;2.13;0.57;;;;;;;10.14;77.08;100485.91;5002947;28;19991;-53
2021/12/13 04:50:34;;;;;;;4.18;0.57;;;;;;;10.17;77.68;100485.94;5001224;28;20046;-51
2021/12/13 04:53:02;;;;;;;;;;;;;;;10.10;78.01;100484.16;5003122;28;20096;-51
2021/12/13 04:55:40;;;;;;;3.00;0.93;;;;;;;10.16;76.88;100482.47;5002446;28;20566;-53
2021/12/13 04:58:12;;;;;;;2.15;0.80;;;;;;;10.19;77.55;100484.19;5001859;28;21603;-50
2021/12/13 05:00:43;;;;;;;5.68;1.00;;;;;;;10.22;77.42;100484.22;5000312;28;20065;-49
2021/12/13 05:03:14;;;;;;;5.85;0.80;;;;;;;10.23;77.51;100488.53;4999738;28;20050;-52
2021/12/13 05:05:41;;;;;;;2.63;1.10;;;;;;;10.23;77.56;100495.47;5007090;28;20045;-50
2021/12/13 05:08:13;;;;;;;5.22;1.13;;;;;;;10.20;77.42;100501.47;5004147;28;20050;-49
2021/12/13 05:10:43;;;;;;;5.10;0.85;;;;;;;10.24;77.40;100508.38;5003744;28;20111;-54
2021/12/13 05:13:13;;;;;;;;;;;;;;;10.16;77.26;100504.88;4997957;28;20116;-48
2021/12/13 05:15:43;;;;;;;2.65;0.98;;;;;;;10.21;77.38;100503.22;5004082;28;19987;-51
2021/12/13 05:18:24;;;;;;;6.18;1.77;;;;;;;10.25;77.42;100509.25;4998671;28;20413;-53
2021/12/13 05:21:15;;;;;;;6.10;0.80;;;;;;;10.23;77.92;100506.66;4999294;28;20093;-50
2021/12/13 05:23:54;;;;;;;2.58;0.85;;;;;;;10.26;77.42;100506.69;4999591;28;20108;-51
2021/12/13 05:26:46;;;;;;;5.93;1.02;;;;;;;10.26;77.79;100519.63;4992875;28;20042;-50
2021/12/13 05:29:34;;;;;;;3.33;0.88;;;;;;;10.28;77.17;100511.88;4996972;28;20101;-49
2021/12/13 05:32:10;;;;;;;3.83;0.77;;;;;;;10.33;77.16;100517.09;5002608;28;20115;-51
2021/12/13 05:34:43;;;;;;;1.88;0.68;;;;;;;10.36;77.23;100511.91;4999594;28;20045;-55
2021/12/13 05:37:10;;;;;;;3.42;0.90;;;;;;;10.38;76.83;100505.03;5005433;28;20041;-52
2021/12/13 05:40:02;;;;;;;3.45;0.82;;;;;;;10.36;77.37;100511.91;4994194;28;20058;-52
2021/12/13 05:42:50;;;;;;;9.38;1.90;;;;;;;10.35;78.23;100505.88;5000603;28;20453;-49
2021/12/13 05:45:34;;;;;;;6.10;0.80;;;;;;;10.39;77.80;100511.94;5002581;28;20050;-51
2021/12/13 05:48:08;;;;;;;2.40;0.77;;;;;;;10.40;77.55;100513.66;5000924;28;20128;-50
2021/12/13 05:50:42;;;;;;;3.53;1.00;;;;;;;10.41;77.27;100520.59;5001454;28;20095;-50
2021/12/13 05:53:15;;;;;;;1.90;0.68;;;;;;;10.42;77.40;100522.31;5003464;28;20050;-52
2021/12/13 05:55:54;;;;;;;1.40;0.60;;;;;;;10.43;77.12;100524.03;4999264;28;20038;-56
2021/12/13 05:58:46;;;;;;;1.75;0.88;;;;;;;10.41;78.01;100515.41;5003146;28;20763;-55
2021/12/13 06:01:22;;;;;;;3.75;0.75;;;;;;;10.43;77.75;100524.03;4988613;28;20042;-53
2021/12/13 06:03:55;;;;;;;3.08;0.60;;;;;;;10.45;77.54;100527.53;4996819;28;21200;-53
2021/12/13 06:06:28;;;;;;;2.00;1.13;;;;;;;10.47;77.48;100525.81;5000309;28;20053;-54
2021/12/13 06:08:57;;;;;;;4.28;0.65;;;;;;;10.47;77.83;100519.78;5000579;28;20078;-53
2021/12/13 06:11:32;;;;;;;1.45;0.63;;;;;;;10.48;77.12;100511.16;4996933;28;20058;-53
2021/12/13 06:14:04;;;;;;;3.70;0.80;;;;;;;10.49;77.82;100524.13;4999020;28;20057;-53
2021/12/13 06:16:39;;;;;;;2.90;0.70;;;;;;;10.45;77.34;100517.19;5005537;28;20041;-50
2021/12/13 06:19:14;;;;;;;4.28;0.77;;;;;;;10.47;77.70;100505.09;4998511;28;20041;-54
2021/12/13 06:21:55;;;;;;;3.65;1.45;;;;;;;10.45;77.20;100512.00;4996455;28;20425;-53
2021/12/13 06:24:31;;;;;;;2.63;0.63;;;;;;;10.48;77.26;100531.88;5001383;28;20058;-50
2021/12/13 06:27:06;;;;;;;8.20;1.08;;;;;;;10.47;76.85;100533.59;4997555;28;20658;-54
2021/12/13 06:29:49;;;;;;;4.28;0.70;;;;;;;10.44;77.72;100541.31;5002086;28;20104;-52
2021/12/13 06:32:29;;;;;;;2.58;0.60;;;;;;;10.46;77.05;100537.03;5000142;28;20498;-50
2021/12/13 06:34:56;;;;;;;4.22;1.55;;;;;;;10.48;77.53;100547.41;4993908;28;20046;-51
2021/12/13 06:37:28;;;;;;;3.80;0.73;;;;;;;10.48;77.32;100550.88;5004329;28;20701;-54
2021/12/13 06:40:17;;;;;;;5.53;0.68;;;;;;;10.46;77.15;100562.94;4994071;28;20058;-54
2021/12/13 06:42:44;;;;;;;3.80;0.77;;;;;;;10.51;77.46;100552.59;4995962;28;20112;-52
2021/12/13 06:45:22;;;;;;;3.10;0.77;;;;;;;10.47;77.59;100551.72;5000430;28;20065;-53
2021/12/13 06:47:52;;;;;;;3.10;0.70;;;;;;;10.48;77.01;100552.59;4997099;28;20049;-54
2021/12/13 06:50:21;;;;;;;;;;;;;;;10.39;77.13;100569.78;5004894;28;20425;-52
2021/12/13 06:52:48;;;;;;;3.28;1.10;;;;;;;10.46;77.69;100560.34;4994105;28;20578;-50
2021/12/13 06:55:18;;;;;;;7.88;0.80;;;;;;;10.45;77.43;100563.81;4997883;28;21935;-49
2021/12/13 06:57:58;;;;;;;4.15;0.75;;;;;;;10.44;76.80;100567.22;4996245;28;20112;-51
2021/12/13 07:00:32;;;;;;;8.90;0.90;;;;;;;10.46;77.55;100575.00;4994302;28;20081;-52
2021/12/13 07:03:03;;;;;;;5.13;0.77;;;;;;;10.45;77.57;100576.75;4996748;28;20045;-52
2021/12/13 07:05:41;;;;;;;2.85;0.90;;;;;;;10.45;77.74;100583.63;5001585;28;20587;-50
2021/12/13 07:08:15;;;;;;;8.65;0.90;;;;;;;10.43;77.57;100585.34;5000829;28;20061;-53
2021/12/13 07:10:59;;;;;;;3.65;1.10;;;;;;;10.43;77.56;100583.59;5001100;28;20050;-53
2021/12/13 07:13:33;;;;;;;3.78;0.85;;;;;;;10.43;77.53;100581.00;5002292;28;20062;-51
2021/12/13 07:16:07;;;;;;;2.45;0.85;;;;;;;10.43;77.19;100593.94;5008240;28;20115;-54
2021/12/13 07:19:00;;;;;;;4.45;0.93;;;;;;;10.39;77.87;100594.78;5001005;28;20072;-54
2021/12/13 07:21:32;;;;;;;10.45;1.02;;;;;;;10.44;77.41;100608.66;5003797;28;20050;-54
2021/12/13 07:24:05;;;;;;;8.02;1.35;;;;;;;10.41;77.13;100612.06;5004956;28;20736;-54
2021/12/13 07:26:39;;;;;;;3.65;2.03;;;;;;;10.39;77.52;100610.31;5002456;28;20441;-53
2021/12/13 07:29:18;;;;;;;5.50;0.73;;;;;;;10.41;77.34;100608.63;5004006;28;20116;-53
2021/12/13 07:31:47;;;;;;;6.45;1.08;;;;;;;10.41;77.23;100613.81;4998569;28;20053;-50
2021/12/13 07:34:19;;;;;;;6.97;0.82;;;;;;;10.41;77.33;100619.00;5009005;28;20077;-49
2021/12/13 07:36:57;;;;;;;5.25;1.20;;;;;;;10.38;77.11;100625.03;5001796;28;20065;-54
2021/12/13 07:39:27;;;;;;;4.75;1.15;;;;;;;10.39;78.03;100620.69;5005423;28;20398;-54
2021/12/13 07:41:59;;;;;;;1.58;0.57;;;;;;;10.37;78.32;100627.59;4996635;28;20516;-52
2021/12/13 07:44:46;;;;;;;9.90;0.80;;;;;;;10.33;78.18;100625.84;4996791;28;20054;-54
2021/12/13 07:47:19;;;;;;;4.53;1.00;;;;;;;10.36;77.46;100625.84;5004376;28;20092;-52
2021/12/13 07:49:51;;;;;;;6.90;1.85;;;;;;;10.36;77.76;100624.13;4999497;28;20505;-50
2021/12/13 07:52:27;;;;;;;2.33;0.80;;;;;;;10.34;78.17;100627.56;4995412;28;20101;-51
2021/12/13 07:54:55;;;;;;;4.70;1.00;;;;;;;10.32;77.92;100629.25;4998314;28;20045;-52
2021/12/13 07:57:28;;;;;;;3.47;1.10;;;;;;;10.31;78.58;100628.41;5002189;28;20111;-51
2021/12/13 07:59:56;;;;;;;6.30;1.13;;;;;;;10.31;77.68;100637.88;4991355;28;20054;-49
2021/12/13 08:02:31;;;;;;;5.57;1.65;;;;;;;10.28;78.24;100629.25;5001228;28;20054;-54
2021/12/13 08:05:08;;;;;;;4.18;1.08;;;;;;;10.31;77.67;100643.06;4993128;28;20046;-54
2021/12/13 08:07:48;;;;;;;4.57;1.42;;;;;;;10.27;77.94;100645.63;4994469;28;20050;-51
2021/12/13 08:10:24;;;;;;;5.43;1.27;;;;;;;10.25;78.21;100642.19;4993777;28;20050;-55
2021/12/13 08:13:00;;;;;;;6.25;1.25;;;;;;;10.26;78.60;100645.59;4999354;28;20050;-53
2021/12/13 08:15:35;;;;;;;4.75;0.98;;;;;;;10.26;77.83;100651.66;4994967;28;20124;-55
2021/12/13 08:18:10;;;;;;;4.85;0.85;;;;;;;10.25;78.45;100649.94;4994106;28;20054;-54
2021/12/13 08:20:45;;;;;;;2.17;0.75;;;;;;;10.24;78.49;100657.69;4996343;28;20517;-52
2021/12/13 08:23:17;;;;;;;2.35;1.83;;;;;;;10.25;78.70;100649.94;4997659;28;20425;-53
2021/12/13 08:25:46;;;;;;;5.50;0.93;;;;;;;10.24;78.25;100658.53;5011145;28;20050;-52
2021/12/13 08:28:18;;;;;;;6.78;1.00;;;;;;;10.24;78.27;100658.53;4998236;28;20089;-52
2021/12/13 08:30:53;;;;;;;6.10;1.30;;;;;;;10.24;78.67;100668.91;4998780;28;20100;-51
2021/12/13 08:33:25;;;;;;;2.90;0.70;;;;;;;10.23;78.11;100674.94;5005603;28;20045;-48
2021/12/13 08:35:57;;;;;;;6.28;1.95;;;;;;;10.27;77.89;100681.88;5003404;28;20100;-50
2021/12/13 08:38:32;;;;;;;2.85;0.80;;;;;;;10.25;78.71;100685.31;4999634;28;20050;-54
2021/12/13 08:41:05;;;;;;;4.20;0.95;;;;;;;10.27;78.71;100679.28;4993553;28;20055;-52
2021/12/13 08:43:40;;;;;;;2.65;1.13;;;;;;;10.27;77.99;100678.44;4993678;28;20490;-52
2021/12/13 08:46:08;;;;;;;4.43;1.25;;;;;;;10.25;78.88;100681.00;5006455;28;20088;-50
2021/12/13 08:48:51;;;;;;;6.68;0.85;;;;;;;10.22;78.63;100686.16;4999408;28;20553;-55
2021/12/13 08:51:23;;;;;;;4.63;1.02;;;;;;;10.25;78.92;100691.38;4995502;28;20053;-54
2021/12/13 08:54:00;;;;;;;4.40;0.73;;;;;;;10.26;78.85;100702.56;5003341;28;20054;-52
2021/12/13 08:56:32;;;;;;;6.13;1.00;;;;;;;10.26;78.59;100692.22;4997892;28;20124;-54
2021/12/13 08:59:10;;;;;;;5.15;0.82;;;;;;;10.29;78.58;100708.66;4982011;28;20117;-54
2021/12/13 09:01:42;;;;;;;9.68;1.20;;;;;;;10.28;78.98;100712.13;5000698;28;20046;-51
2021/12/13 09:04:19;;;;;;;2.22;0.73;;;;;;;10.27;78.99;100707.75;4994677;28;20050;-54
2021/12/13 09:06:52;;;;;;;2.60;0.93;;;;;;;10.26;78.55;100713.81;5000617;28;20046;-52
2021/12/13 09:09:20;;;;;;;4.55;0.90;;;;;;;10.26;78.64;100713.81;4999448;28;20046;-56
2021/12/13 09:11:56;;;;;;;4.07;2.08;;;;;;;10.31;79.11;100715.56;5003879;28;20432;-52
2021/12/13 09:14:50;;;;;;;5.28;1.50;;;;;;;10.26;79.11;100713.81;4995001;28;20379;-54
2021/12/13 09:17:39;;;;;;;4.07;1.25;;;;;;;10.30;79.22;100714.69;5006548;28;20037;-50
2021/12/13 09:20:30;;;;;;;2.50;2.00;;;;;;;10.27;79.12;100706.91;4998169;28;20367;-54
2021/12/13 09:23:13;;;;;;;4.35;0.93;;;;;;;10.29;79.36;100719.00;4996252;28;20061;-54
2021/12/13 09:25:50;;;;;;;4.22;1.95;;;;;;;10.33;79.36;100713.88;5003122;28;20401;-54
2021/12/13 09:28:22;;;;;;;6.13;0.85;;;;;;;10.31;78.77;100711.28;4992880;28;20096;-56
2021/12/13 09:30:55;;;;;;;2.95;0.70;;;;;;;10.36;79.31;100719.94;5002207;28;20052;-51
2021/12/13 09:33:28;;;;;;;2.58;0.63;;;;;;;10.37;78.78;100718.22;4995104;28;20054;-51
2021/12/13 09:36:04;;;;;;;2.90;0.80;;;;;;;10.40;79.08;100726.00;4999473;28;20057;-52
2021/12/13 09:38:45;;;;;;;3.28;1.30;;;;;;;10.41;78.43;100722.56;4996583;28;20046;-50
2021/12/13 09:41:36;;;;;;;2.95;1.17;;;;;;;10.38;78.99;100728.59;4994940;28;20058;-52
2021/12/13 09:44:28;;;;;;;3.25;1.10;;;;;;;10.43;79.18;100733.78;4987561;28;20050;-54
2021/12/13 09:47:05;;;;;;;4.22;1.02;;;;;;;10.47;79.13;100722.63;4993622;28;20057;-51
2021/12/13 09:50:07;;;;;;;3.75;1.13;;;;;;;10.49;78.26;100727.84;4996830;28;20054;-55
2021/12/13 09:52:42;;;;;;;4.07;1.83;;;;;;;10.52;78.79;100731.34;4990654;28;20645;-51
2021/12/13 09:55:21;;;;;;;4.43;1.33;;;;;;;10.54;78.47;100737.38;4996386;28;20062;-49
2021/12/13 09:58:03;;;;;;;6.72;1.25;;;;;;;10.59;78.42;100736.56;5000883;28;20490;-53
2021/12/13 10:00:43;;;;;;;2.83;1.10;;;;;;;10.63;77.96;100748.66;4997660;28;20050;-54
2021/12/13 10:03:14;;;;;;;3.85;0.75;;;;;;;10.68;77.71;100747.00;4994342;28;20156;-54
2021/12/13 10:05:45;;;;;;;4.03;0.82;;;;;;;10.69;78.21;100743.56;4995744;28;20050;-53
2021/12/13 10:08:20;;;;;;;7.10;0.98;;;;;;;10.71;78.36;100746.16;4988586;28;20115;-51
2021/12/13 10:10:53;;;;;;;5.47;0.68;;;;;;;10.73;77.51;100752.19;4997588;28;20038;-53
2021/12/13 10:13:33;;;;;;;2.38;0.85;;;;;;;10.74;77.92;100749.63;4997316;28;20065;-52
2021/12/13 10:16:07;;;;;;;2.22;0.68;;;;;;;10.78;77.83;100753.97;4997704;28;21572;-54
2021/12/13 10:18:36;;;;;;;1.80;0.60;;;;;;;10.83;78.10;100760.91;4998642;28;20050;-54
2021/12/13 10:21:09;;;;;;;4.63;2.45;;;;;;;10.85;77.44;100764.41;4995596;28;21295;-55
2021/12/13 10:23:41;;;;;;;3.58;1.00;;;;;;;10.88;76.83;100764.44;4999710;28;20862;-53
2021/12/13 10:26:27;;;;;;;5.15;2.30;;;;;;;10.89;77.73;100767.03;4991606;28;20596;-53
2021/12/13 10:28:56;;;;;;;4.55;1.80;;;;;;;10.91;77.31;100774.81;4998214;28;20610;-51
2021/12/13 10:31:36;;;;;;;4.68;0.90;;;;;;;10.92;77.32;100776.56;4994354;28;20528;-53
2021/12/13 10:34:08;;;;;;;2.92;1.25;;;;;;;10.96;77.26;100770.53;4997108;28;20161;-52
2021/12/13 10:36:39;;;;;;;1.88;0.77;;;;;;;10.96;77.12;100782.63;4997199;28;20058;-53
2021/12/13 10:39:12;;;;;;;5.10;1.30;;;;;;;10.98;77.28;100786.94;4994485;28;20053;-49
2021/12/13 10:42:06;;;;;;;3.92;0.95;;;;;;;10.99;76.57;100783.53;5003510;28;20049;-54
2021/12/13 10:44:34;;;;;;;5.72;0.70;;;;;;;11.01;77.45;100776.59;5001421;28;20054;-52
2021/12/13 10:47:08;;;;;;;3.22;0.98;;;;;;;11.04;77.34;100776.63;5001138;28;20116;-52
2021/12/13 10:49:37;;;;;;;2.05;0.68;;;;;;;11.07;76.80;100780.13;4996688;28;20050;-53
2021/12/13 10:52:19;;;;;;;3.05;0.80;;;;;;;11.06;76.96;100787.03;5000209;28;20050;-53
2021/12/13 10:54:52;;;;;;;2.50;0.93;;;;;;;11.11;76.70;100787.06;5002582;28;20135;-53
2021/12/13 10:57:30;;;;;;;4.03;0.90;;;;;;;11.09;76.17;100778.41;4999056;28;20054;-52
2021/12/13 10:59:59;;;;;;;2.30;0.88;;;;;;;11.07;75.69;100780.13;4999464;28;20053;-52
2021/12/13 11:02:31;;;;;;;3.47;0.60;;;;;;;11.10;76.09;100774.94;5004862;28;20112;-52
2021/12/13 11:05:09;;;;;;;2.45;0.85;;;;;;;11.10;75.89;100772.34;5004863;28;20112;-55
2021/12/13 11:07:37;;;;;;;3.45;0.85;;;;;;;11.11;76.25;100774.94;4999941;28;20049;-51
2021/12/13 11:10:08;;;;;;;2.75;0.60;;;;;;;11.13;76.48;100774.97;4998831;28;20058;-55
2021/12/13 11:12:40;;;;;;;2.33;0.68;;;;;;;11.16;76.31;100767.22;4993221;28;20054;-54
2021/12/13 11:15:13;;;;;;;1.75;0.73;;;;;;;11.18;75.97;100765.50;4997819;28;20108;-52
2021/12/13 11:17:41;;;;;;;1.75;0.60;;;;;;;11.17;75.22;100766.34;4996895;28;20089;-54
2021/12/13 11:20:15;;;;;;;2.17;0.70;;;;;;;11.20;75.57;100768.97;5002872;28;20053;-51
2021/12/13 11:22:44;;;;;;;3.15;0.90;;;;;;;11.23;76.04;100771.56;4996993;28;20050;-55
2021/12/13 11:25:17;;;;;;;2.55;0.60;;;;;;;11.26;75.26;100763.81;5002405;28;20050;-54
2021/12/13 11:27:45;;;;;;;5.95;1.38;;;;;;;11.32;75.71;100765.59;5001694;28;20513;-54
2021/12/13 11:30:16;;;;;;;2.15;0.75;;;;;;;11.38;75.77;100764.75;5005627;28;20995;-54
2021/12/13 11:33:23;;;;;;;3.28;0.90;;;;;;;11.40;74.99;100770.81;4996833;28;20050;-55
2021/12/13 11:36:25;;;;;;;4.00;0.65;;;;;;;11.43;74.70;100768.22;4994961;28;20097;-51
2021/12/13 11:39:31;;;;;;;2.65;0.93;;;;;;;11.47;75.07;100769.09;4997667;28;20050;-56
2021/12/13 11:42:28;;;;;;;1.30;0.55;;;;;;;11.50;75.04;100759.63;4999191;28;20053;-53
2021/12/13 11:45:34;;;;;;;1.48;0.63;;;;;;;11.54;74.59;100761.38;5005202;28;20053;-55
2021/12/13 11:48:41;;;;;;;3.05;0.60;;;;;;;11.57;74.25;100766.59;5004687;28;20144;-50
2021/12/13 11:51:47;;;;;;;2.55;0.60;;;;;;;11.61;74.81;100754.47;5002372;28;20041;-50
2021/12/13 11:54:54;;;;;;;3.50;0.70;;;;;;;11.65;74.57;100758.81;5006748;28;20053;-49
2021/12/13 11:58:00;;;;;;;2.80;0.70;;;;;;;11.69;73.94;100759.72;4992510;28;20053;-47
2021/12/13 12:00:57;;;;;;;1.52;0.60;;;;;;;11.71;74.22;100763.16;4999579;28;20065;-52
2021/12/13 12:04:04;;;;;;;2.38;0.60;;;;;;;11.67;73.50;100771.78;5001589;28;20072;-46
2021/12/13 12:07:10;;;;;;;1.48;1.38;;;;;;;11.64;72.25;100775.25;4986863;28;20504;-48
2021/12/13 12:10:18;;;;;;;3.08;1.13;;;;;;;11.61;73.57;100771.75;4992572;28;20058;-48
2021/12/13 12:13:03;;;;;;;1.23;0.65;;;;;;;11.67;74.10;100771.78;4997731;28;20049;-48
2021/12/13 12:15:31;;;;;;;2.22;0.55;;;;;;;11.73;73.53;100770.97;4996713;28;20108;-49